createdAt,value
2018-05-04T00:00:46.771Z,12.73
2018-05-04T00:03:16.884Z,13.77
2018-05-04T00:05:46.977Z,13.27
2018-05-04T00:08:17.381Z,16.20
2018-05-04T00:10:47.548Z,15.20
2018-05-04T00:13:18.198Z,16.90
2018-05-04T00:15:48.557Z,15.67
2018-05-04T00:18:18.612Z,12.90
2018-05-04T00:20:49.005Z,10.90
2018-05-04T00:23:19.409Z,13.40
2018-05-04T00:25:50.541Z,14.60
2018-05-04T00:28:21.415Z,17.97
2018-05-04T00:30:52.218Z,17.20
2018-05-04T00:33:23.204Z,18.67
2018-05-04T00:35:53.633Z,18.17
2018-05-04T00:38:23.852Z,12.70
2018-05-04T00:40:54.092Z,16.53
2018-05-04T00:43:24.444Z,18.43
2018-05-04T00:45:55.388Z,14.00
2018-05-04T00:48:26.524Z,13.83
2018-05-04T00:50:57.643Z,14.37
2018-05-04T00:53:27.729Z,15.83
2018-05-04T00:55:57.804Z,15.00
2018-05-04T00:58:28.683Z,17.30
2018-05-04T01:00:59.044Z,16.97
2018-05-04T01:03:29.391Z,14.43
2018-05-04T01:06:00.187Z,14.83
2018-05-04T01:08:30.265Z,11.10
2018-05-04T01:11:00.618Z,23.33
2018-05-04T01:13:30.705Z,19.17
2018-05-04T01:16:00.850Z,20.97
2018-05-04T01:18:31.215Z,23.20
2018-05-04T01:21:01.365Z,19.40
2018-05-04T01:23:31.420Z,15.30
2018-05-04T01:26:01.758Z,18.30
2018-05-04T01:28:31.840Z,16.87
2018-05-04T01:31:02.304Z,15.87
2018-05-04T01:33:32.368Z,16.20
2018-05-04T01:36:02.698Z,18.00
2018-05-04T01:38:33.072Z,17.77
2018-05-04T01:41:03.179Z,19.37
2018-05-04T01:43:33.295Z,17.17
2018-05-04T01:46:03.736Z,16.97
2018-05-04T01:48:34.079Z,20.07
2018-05-04T01:51:04.975Z,17.80
2018-05-04T01:53:35.321Z,15.13
2018-05-04T01:56:05.404Z,18.63
2018-05-04T01:58:35.767Z,18.80
2018-05-04T02:01:06.909Z,15.13
2018-05-04T02:03:37.863Z,17.53
2018-05-04T02:06:09.179Z,18.90
2018-05-04T02:08:40.395Z,17.33
2018-05-04T02:11:10.560Z,19.03
2018-05-04T02:13:40.667Z,16.57
2018-05-04T02:16:11.073Z,14.27
2018-05-04T02:18:41.150Z,21.83
2018-05-04T02:21:12.284Z,17.03
2018-05-04T02:23:42.379Z,14.50
2018-05-04T02:26:12.684Z,20.67
2018-05-04T02:28:42.749Z,13.47
2018-05-04T02:31:12.868Z,19.53
2018-05-04T02:33:43.292Z,20.83
2018-05-04T02:36:13.370Z,26.30
2018-05-04T02:38:43.440Z,21.20
2018-05-04T02:41:13.578Z,22.57
2018-05-04T02:43:43.963Z,20.33
2018-05-04T02:46:14.079Z,18.63
2018-05-04T02:48:44.423Z,19.67
2018-05-04T02:51:14.799Z,24.87
2018-05-04T02:53:44.914Z,26.83
2018-05-04T02:56:14.991Z,22.93
2018-05-04T02:58:46.181Z,21.70
2018-05-04T03:01:17.043Z,21.27
2018-05-04T03:03:47.440Z,22.97
2018-05-04T03:06:17.588Z,19.53
2018-05-04T03:08:47.941Z,17.27
2018-05-04T03:11:18.649Z,18.37
2018-05-04T03:13:48.736Z,16.17
2018-05-04T03:16:19.611Z,19.63
2018-05-04T03:18:49.673Z,23.07
2018-05-04T03:21:19.802Z,21.73
2018-05-04T03:23:50.220Z,21.63
2018-05-04T03:26:20.296Z,22.13
2018-05-04T03:28:50.373Z,22.87
2018-05-04T03:31:21.549Z,20.93
2018-05-04T03:33:51.622Z,19.07
2018-05-04T03:36:21.717Z,22.47
2018-05-04T03:38:52.286Z,21.23
2018-05-04T03:41:22.699Z,16.80
2018-05-04T03:43:52.796Z,23.23
2018-05-04T03:46:23.181Z,21.10
2018-05-04T03:48:53.241Z,16.83
2018-05-04T03:51:23.297Z,21.00
2018-05-04T03:53:54.470Z,20.23
2018-05-04T03:56:24.544Z,23.97
2018-05-04T03:59:06.392Z,23.10
2018-05-04T04:03:53.541Z,17.63
2018-05-04T04:06:23.699Z,23.80
2018-05-04T04:08:53.783Z,24.57
2018-05-04T04:11:23.862Z,21.07
2018-05-04T04:13:54.376Z,27.07
2018-05-04T04:16:24.440Z,26.90
2018-05-04T04:18:54.494Z,23.63
2018-05-04T04:21:25.020Z,35.50
2018-05-04T04:23:55.835Z,30.10
2018-05-04T04:26:26.244Z,23.93
2018-05-04T04:28:56.582Z,29.87
2018-05-04T04:31:27.640Z,33.17
2018-05-04T04:33:58.203Z,35.10
2018-05-04T04:36:28.730Z,38.13
2018-05-04T04:39:00.959Z,34.90
2018-05-04T04:41:31.714Z,37.83
2018-05-04T04:44:01.907Z,33.43
2018-05-04T04:46:33.811Z,32.43
2018-05-04T04:49:03.945Z,32.07
2018-05-04T04:51:34.040Z,39.67
2018-05-04T04:54:07.363Z,37.00
2018-05-04T04:56:37.582Z,35.87
2018-05-04T04:59:08.169Z,31.10
2018-05-04T05:01:39.672Z,38.27
2018-05-04T05:04:20.552Z,34.80
2018-05-04T05:06:50.640Z,34.03
2018-05-04T05:09:20.731Z,33.07
2018-05-04T05:11:50.815Z,31.57
2018-05-04T05:14:21.899Z,38.33
2018-05-04T05:16:52.079Z,35.30
2018-05-04T05:19:22.921Z,32.60
2018-05-04T05:21:53.892Z,37.53
2018-05-04T05:24:26.523Z,37.30
2018-05-04T05:27:00.393Z,33.13
2018-05-04T05:29:30.845Z,40.53
2018-05-04T05:32:04.105Z,41.03
2018-05-04T05:34:36.326Z,37.37
2018-05-04T05:37:06.832Z,36.23
2018-05-04T05:39:36.916Z,27.97
2018-05-04T05:42:07.684Z,26.80
2018-05-04T05:44:38.900Z,31.43
2018-05-04T05:47:09.079Z,34.67
2018-05-04T05:49:46.665Z,24.57
2018-05-04T05:52:17.325Z,34.73
2018-05-04T05:54:47.677Z,30.97
2018-05-04T05:57:18.173Z,25.37
2018-05-04T05:59:49.851Z,23.40
2018-05-04T06:02:23.426Z,21.10
2018-05-04T06:04:53.708Z,19.80
2018-05-04T06:07:24.647Z,20.93
2018-05-04T06:09:55.530Z,20.77
2018-05-04T06:12:26.775Z,16.57
2018-05-04T06:14:59.303Z,16.47
2018-05-04T06:17:29.847Z,19.10
2018-05-04T06:20:07.127Z,16.50
2018-05-04T06:22:37.306Z,14.90
2018-05-04T06:25:08.187Z,15.73
2018-05-04T06:27:39.504Z,12.87
2018-05-04T06:30:12.958Z,20.27
2018-05-04T06:32:45.250Z,11.30
2018-05-04T06:35:15.344Z,13.37
2018-05-04T06:37:45.527Z,18.63
2018-05-04T06:40:15.723Z,10.53
2018-05-04T06:42:54.413Z,13.50
2018-05-04T06:45:28.328Z,12.30
2018-05-04T06:47:58.660Z,11.03
2018-05-04T06:50:28.908Z,10.73
2018-05-04T06:52:58.996Z,18.37
2018-05-04T06:55:29.387Z,8.23
2018-05-04T06:58:00.839Z,10.53
2018-05-04T07:00:34.145Z,14.07
2018-05-04T07:03:04.248Z,8.37
2018-05-04T07:05:34.651Z,10.57
2018-05-04T07:08:05.116Z,7.47
2018-05-04T07:10:36.135Z,8.73
2018-05-04T07:13:06.994Z,13.13
2018-05-04T07:15:37.387Z,10.97
2018-05-04T07:18:08.284Z,10.37
2018-05-04T07:20:38.360Z,7.53
2018-05-04T07:23:08.797Z,12.47
2018-05-04T07:25:39.244Z,9.13
2018-05-04T07:28:09.831Z,8.93
2018-05-04T07:30:41.293Z,9.33
2018-05-04T07:33:13.267Z,7.53
2018-05-04T07:35:43.555Z,8.57
2018-05-04T07:38:13.988Z,6.80
2018-05-04T07:40:44.828Z,7.67
2018-05-04T07:43:15.354Z,9.47
2018-05-04T07:45:45.466Z,5.90
2018-05-04T07:48:16.611Z,5.97
2018-05-04T07:50:53.104Z,10.13
2018-05-04T07:53:23.461Z,8.37
2018-05-04T07:55:53.648Z,12.33
2018-05-04T07:58:24.023Z,9.60
2018-05-04T08:00:54.144Z,8.03
2018-05-04T08:03:24.258Z,9.47
2018-05-04T08:05:54.636Z,11.20
2018-05-04T08:08:25.260Z,8.40
2018-05-04T08:10:55.349Z,6.90
2018-05-04T08:13:25.843Z,9.30
2018-05-04T08:15:56.074Z,10.03
2018-05-04T08:18:26.189Z,8.00
2018-05-04T08:20:57.484Z,7.40
2018-05-04T08:23:28.327Z,11.50
2018-05-04T08:25:59.476Z,9.70
2018-05-04T08:28:29.590Z,8.63
2018-05-04T08:30:59.627Z,8.07
2018-05-04T08:33:30.067Z,5.37
2018-05-04T08:36:00.215Z,7.57
2018-05-04T08:38:44.977Z,6.70
2018-05-04T08:41:15.050Z,7.00
2018-05-04T08:43:45.423Z,5.10
2018-05-04T08:46:15.794Z,8.23
2018-05-04T08:48:45.861Z,6.07
2018-05-04T08:51:16.340Z,8.73
2018-05-04T08:53:46.422Z,11.00
2018-05-04T08:56:17.278Z,6.50
2018-05-04T08:58:48.444Z,9.83
2018-05-04T09:01:18.516Z,8.23
2018-05-04T09:03:49.437Z,8.13
2018-05-04T09:06:19.761Z,9.60
2018-05-04T09:08:49.909Z,6.93
2018-05-04T09:11:20.812Z,6.73
2018-05-04T09:13:51.168Z,6.63
2018-05-04T09:16:22.288Z,7.77
2018-05-04T09:18:52.372Z,9.20
2018-05-04T09:21:22.728Z,8.63
2018-05-04T09:23:52.850Z,5.90
2018-05-04T09:26:22.927Z,6.20
2018-05-04T09:28:53.440Z,9.53
2018-05-04T09:31:23.504Z,8.90
2018-05-04T09:33:53.585Z,6.37
2018-05-04T09:36:23.931Z,8.93
2018-05-04T09:38:53.983Z,7.90
2018-05-04T09:41:24.063Z,8.33
2018-05-04T09:43:54.619Z,9.17
2018-05-04T09:46:24.761Z,8.43
2018-05-04T09:48:55.233Z,7.27
2018-05-04T09:51:25.700Z,8.53
2018-05-04T09:53:56.595Z,8.60
2018-05-04T09:56:26.928Z,8.43
2018-05-04T09:58:57.268Z,13.53
2018-05-04T10:01:27.327Z,10.03
2018-05-04T10:03:58.455Z,8.23
2018-05-04T10:06:29.271Z,9.10
2018-05-04T10:08:59.358Z,8.07
2018-05-04T10:11:29.791Z,7.83
2018-05-04T10:13:59.880Z,6.00
2018-05-04T10:16:29.975Z,8.00
2018-05-04T10:19:01.051Z,8.97
2018-05-04T10:21:31.112Z,9.67
2018-05-04T10:26:21.479Z,8.23
2018-05-04T10:28:51.555Z,9.03
2018-05-04T10:31:22.428Z,9.53
2018-05-04T10:33:52.798Z,14.07
2018-05-04T10:36:22.846Z,8.17
2018-05-04T10:38:53.760Z,9.47
2018-05-04T10:41:24.942Z,6.57
2018-05-04T10:43:55.114Z,9.63
2018-05-04T10:46:25.208Z,8.87
2018-05-04T10:48:55.617Z,9.53
2018-05-04T10:51:25.680Z,8.23
2018-05-04T10:53:56.002Z,8.30
2018-05-04T10:56:26.444Z,7.67
2018-05-04T10:58:57.317Z,9.00
2018-05-04T11:01:27.654Z,8.57
2018-05-04T11:03:58.007Z,7.37
2018-05-04T11:06:28.191Z,7.93
2018-05-04T11:08:58.265Z,9.97
2018-05-04T11:11:29.436Z,13.03
2018-05-04T11:13:59.839Z,8.70
2018-05-04T11:16:29.931Z,5.97
2018-05-04T11:19:00.307Z,7.57
2018-05-04T11:21:30.369Z,8.87
2018-05-04T11:24:00.442Z,9.80
2018-05-04T11:26:30.811Z,6.73
2018-05-04T11:29:00.897Z,11.33
2018-05-04T11:31:32.233Z,6.20
2018-05-04T11:34:02.561Z,9.47
2018-05-04T11:36:32.663Z,9.57
2018-05-04T11:39:04.324Z,6.77
2018-05-04T11:41:34.735Z,7.40
2018-05-04T11:44:05.892Z,6.33
2018-05-04T11:46:36.046Z,9.23
2018-05-04T11:49:06.400Z,9.13
2018-05-04T11:51:36.467Z,7.97
2018-05-04T11:54:06.593Z,9.03
2018-05-04T11:56:36.924Z,5.00
2018-05-04T11:59:06.990Z,4.97
2018-05-04T12:01:37.132Z,6.50
2018-05-04T12:04:07.508Z,6.23
2018-05-04T12:06:37.627Z,5.47
2018-05-04T12:09:07.787Z,4.87
2018-05-04T12:11:38.911Z,6.43
2018-05-04T12:14:09.384Z,6.47
2018-05-04T12:16:39.451Z,4.83
2018-05-04T12:19:10.685Z,5.93
2018-05-04T12:21:40.831Z,6.40
2018-05-04T12:24:11.840Z,5.33
2018-05-04T12:26:42.154Z,6.23
2018-05-04T12:29:12.243Z,5.30
2018-05-04T12:31:42.299Z,8.20
2018-05-04T12:34:12.664Z,7.37
2018-05-04T12:36:43.929Z,8.97
2018-05-04T12:39:14.028Z,8.33
2018-05-04T12:41:44.889Z,3.90
2018-05-04T12:44:15.022Z,5.03
2018-05-04T12:46:45.339Z,5.40
2018-05-04T12:49:15.404Z,6.17
2018-05-04T12:51:45.604Z,3.80
2018-05-04T12:54:15.947Z,5.33
2018-05-04T12:56:46.019Z,6.20
2018-05-04T12:59:16.168Z,6.03
2018-05-04T13:01:46.553Z,6.43
2018-05-04T13:04:17.056Z,6.53
2018-05-04T13:06:47.955Z,5.00
2018-05-04T13:09:18.305Z,4.37
2018-05-04T13:11:48.357Z,3.80
2018-05-04T13:14:18.499Z,5.03
2018-05-04T13:16:49.024Z,4.10
2018-05-04T13:19:19.120Z,6.63
2018-05-04T13:21:49.263Z,5.10
2018-05-04T13:24:19.773Z,6.37
2018-05-04T13:26:49.827Z,5.70
2018-05-04T13:29:19.875Z,3.60
2018-05-04T13:31:50.204Z,4.60
2018-05-04T13:34:21.016Z,6.23
2018-05-04T13:36:51.362Z,4.17
2018-05-04T13:39:21.655Z,7.07
2018-05-04T13:41:51.722Z,7.83
2018-05-04T13:44:22.653Z,7.60
2018-05-04T13:46:53.735Z,6.93
2018-05-04T13:49:23.796Z,5.53
2018-05-04T13:51:53.847Z,4.67
2018-05-04T13:54:25.210Z,4.77
2018-05-04T13:56:56.620Z,5.13
2018-05-04T13:59:27.499Z,7.00
2018-05-04T14:01:57.966Z,3.27
2018-05-04T14:04:28.984Z,7.73
2018-05-04T14:06:59.357Z,7.10
2018-05-04T14:09:30.740Z,4.90
2018-05-04T14:12:01.555Z,6.43
2018-05-04T14:14:31.628Z,4.03
2018-05-04T14:17:01.981Z,4.43
2018-05-04T14:19:32.927Z,6.63
2018-05-04T14:22:04.069Z,3.33
2018-05-04T14:24:35.160Z,4.40
2018-05-04T14:27:05.281Z,4.47
2018-05-04T14:29:35.625Z,5.00
2018-05-04T14:32:05.795Z,5.10
2018-05-04T14:34:35.891Z,3.67
2018-05-04T14:37:07.064Z,7.60
2018-05-04T14:39:37.687Z,4.17
2018-05-04T14:42:07.822Z,5.03
2018-05-04T14:44:38.317Z,6.97
2018-05-04T14:47:09.541Z,6.77
2018-05-04T14:49:39.613Z,5.47
2018-05-04T14:52:09.813Z,7.03
2018-05-04T14:54:39.884Z,6.20
2018-05-04T14:57:10.519Z,3.17
2018-05-04T14:59:40.705Z,5.10
2018-05-04T15:02:10.966Z,4.13
2018-05-04T15:04:41.361Z,7.70
2018-05-04T15:07:12.679Z,7.37
2018-05-04T15:09:43.551Z,4.60
2018-05-04T15:12:13.945Z,4.47
2018-05-04T15:14:44.356Z,5.50
2018-05-04T15:17:15.338Z,3.97
2018-05-04T15:19:45.464Z,4.33
2018-05-04T15:22:15.910Z,3.20
2018-05-04T15:24:46.029Z,4.93
2018-05-04T15:27:16.396Z,5.77
2018-05-04T15:29:47.576Z,4.70
2018-05-04T15:32:17.831Z,7.10
2018-05-04T15:34:48.696Z,5.23
2018-05-04T15:37:19.858Z,3.27
2018-05-04T15:39:50.009Z,4.03
2018-05-04T15:42:20.148Z,5.37
2018-05-04T15:44:53.785Z,3.77
2018-05-04T15:47:24.616Z,3.87
2018-05-04T15:49:55.638Z,3.53
2018-05-04T15:52:26.030Z,3.10
2018-05-04T15:54:56.176Z,3.33
2018-05-04T15:57:31.477Z,4.17
2018-05-04T16:00:01.965Z,4.60
2018-05-04T16:02:32.831Z,3.43
2018-05-04T16:05:02.920Z,4.13
2018-05-04T16:07:34.078Z,3.53
2018-05-04T16:10:04.211Z,3.63
2018-05-04T16:12:34.388Z,6.80
2018-05-04T16:15:05.017Z,4.33
2018-05-04T16:17:36.236Z,7.57
2018-05-04T16:20:06.372Z,5.70
2018-05-04T16:22:36.540Z,5.70
2018-05-04T16:25:06.942Z,2.80
2018-05-04T16:27:37.427Z,4.90
2018-05-04T16:30:07.710Z,5.67
2018-05-04T16:32:38.768Z,5.10
2018-05-04T16:35:09.234Z,4.23
2018-05-04T16:37:39.363Z,6.13
2018-05-04T16:40:09.634Z,6.53
2018-05-04T16:42:40.077Z,4.87
2018-05-04T16:45:10.374Z,3.97
2018-05-04T16:47:45.422Z,5.97
2018-05-04T16:50:15.802Z,4.70
2018-05-04T16:52:46.074Z,4.07
2018-05-04T16:55:18.744Z,4.40
2018-05-04T16:57:49.661Z,6.20
2018-05-04T17:00:20.668Z,5.17
2018-05-04T17:02:50.771Z,3.73
2018-05-04T17:05:21.188Z,5.60
2018-05-04T17:07:51.403Z,5.53
2018-05-04T17:10:21.986Z,7.40
2018-05-04T17:12:52.520Z,4.53
2018-05-04T17:15:23.497Z,5.50
2018-05-04T17:17:53.757Z,4.30
2018-05-04T17:20:24.118Z,5.00
2018-05-04T17:22:55.074Z,5.23
2018-05-04T17:25:25.304Z,4.33
2018-05-04T17:27:55.569Z,4.93
2018-05-04T17:30:26.058Z,5.00
2018-05-04T17:32:56.255Z,4.43
2018-05-04T17:35:27.473Z,6.00
2018-05-04T17:37:57.960Z,6.37
2018-05-04T17:40:28.175Z,4.70
2018-05-04T17:42:58.543Z,3.80
2018-05-04T17:45:28.944Z,3.90
2018-05-04T17:47:59.341Z,4.30
2018-05-04T17:50:29.533Z,6.27
2018-05-04T17:53:01.606Z,5.03
2018-05-04T17:55:32.832Z,5.23
2018-05-04T17:58:03.769Z,7.73
2018-05-04T18:00:35.006Z,7.10
2018-05-04T18:03:05.333Z,6.47
2018-05-04T18:05:36.485Z,6.60
2018-05-04T18:08:07.017Z,5.80
2018-05-04T18:10:37.933Z,7.00
2018-05-04T18:13:08.209Z,5.83
2018-05-04T18:15:38.748Z,6.73
2018-05-04T18:18:08.964Z,5.43
2018-05-04T18:20:39.108Z,5.20
2018-05-04T18:23:09.710Z,12.33
2018-05-04T18:25:39.876Z,22.10
2018-05-04T18:28:10.128Z,18.93
2018-05-04T18:30:41.577Z,16.53
2018-05-04T18:33:11.936Z,14.93
2018-05-04T18:35:42.352Z,11.53
2018-05-04T18:38:12.563Z,8.43
2018-05-04T18:40:44.063Z,8.63
2018-05-04T18:43:14.528Z,25.10
2018-05-04T18:45:44.832Z,28.87
2018-05-04T18:48:15.354Z,19.83
2018-05-04T18:50:45.842Z,12.07
2018-05-04T18:53:15.961Z,10.67
2018-05-04T18:55:46.503Z,7.00
2018-05-04T18:58:17.185Z,9.33
2018-05-04T19:00:48.103Z,19.83
2018-05-04T19:03:22.638Z,7.23
2018-05-04T19:05:53.560Z,6.07
2018-05-04T19:08:23.972Z,4.70
2018-05-04T19:10:54.144Z,25.47
2018-05-04T19:13:24.293Z,14.80
2018-05-04T19:15:54.702Z,8.27
2018-05-04T19:18:24.944Z,7.40
2018-05-04T19:20:55.120Z,10.57
2018-05-04T19:23:27.787Z,8.20
2018-05-04T19:25:58.694Z,10.03
2018-05-04T19:28:29.732Z,6.97
2018-05-04T19:31:00.141Z,7.83
2018-05-04T19:33:33.646Z,10.17
2018-05-04T19:36:04.051Z,7.90
2018-05-04T19:38:34.193Z,7.40
2018-05-04T19:41:04.661Z,5.40
2018-05-04T19:43:35.609Z,6.97
2018-05-04T19:46:06.878Z,9.17
2018-05-04T19:48:37.395Z,17.77
2018-05-04T19:51:07.544Z,26.97
2018-05-04T19:53:38.247Z,35.07
2018-05-04T19:56:08.659Z,25.70
2018-05-04T19:58:38.775Z,15.97
2018-05-04T20:01:09.766Z,16.80
2018-05-04T20:03:40.217Z,10.57
2018-05-04T20:06:10.419Z,10.73
2018-05-04T20:08:40.558Z,6.83
2018-05-04T20:11:10.762Z,12.23
2018-05-04T20:13:41.228Z,9.47
2018-05-04T20:16:12.142Z,9.57
2018-05-04T20:18:42.527Z,13.03
2018-05-04T20:21:12.911Z,5.90
2018-05-04T20:23:43.825Z,8.13
2018-05-04T20:26:13.915Z,6.50
2018-05-04T20:28:44.461Z,7.27
2018-05-04T20:31:14.692Z,7.90
2018-05-04T20:33:44.810Z,5.67
2018-05-04T20:36:15.357Z,6.17
2018-05-04T20:38:46.241Z,7.27
2018-05-04T20:41:17.580Z,7.17
2018-05-04T20:43:47.729Z,6.23
2018-05-04T20:46:19.268Z,9.07
2018-05-04T20:48:49.664Z,6.83
2018-05-04T20:51:20.544Z,5.50
2018-05-04T20:53:51.024Z,6.57
2018-05-04T20:56:21.998Z,5.63
2018-05-04T20:58:52.225Z,5.60
2018-05-04T21:01:22.600Z,6.73
2018-05-04T21:03:52.811Z,4.80
2018-05-04T21:06:23.801Z,5.03
2018-05-04T21:08:53.989Z,4.60
2018-05-04T21:11:24.385Z,7.93
2018-05-04T21:13:54.889Z,5.53
2018-05-04T21:16:25.125Z,6.13
2018-05-04T21:18:55.679Z,5.37
2018-05-04T21:21:26.677Z,6.53
2018-05-04T21:23:56.826Z,7.47
2018-05-04T21:26:27.296Z,8.77
2018-05-04T21:28:57.845Z,6.83
2018-05-04T21:31:27.994Z,8.00
2018-05-04T21:33:59.242Z,7.20
2018-05-04T21:36:29.306Z,8.97
2018-05-04T21:38:59.874Z,8.00
2018-05-04T21:41:30.211Z,8.20
2018-05-04T21:44:00.326Z,8.33
2018-05-04T21:46:30.727Z,7.80
2018-05-04T21:49:00.910Z,10.40
2018-05-04T21:51:32.652Z,11.77
2018-05-04T21:54:03.547Z,11.43
2018-05-04T21:56:33.625Z,10.43
2018-05-04T21:59:05.130Z,9.13
2018-05-04T22:01:35.220Z,11.07
2018-05-04T22:04:05.794Z,12.43
2018-05-04T22:06:36.893Z,10.40
2018-05-04T22:09:07.029Z,11.70
2018-05-04T22:11:37.104Z,13.07
2018-05-04T22:14:07.188Z,12.07
2018-05-04T22:16:39.412Z,16.57
2018-05-04T22:19:09.535Z,20.00
2018-05-04T22:21:40.044Z,19.60
2018-05-04T22:24:11.037Z,24.73
2018-05-04T22:26:41.868Z,22.30
2018-05-04T22:29:12.276Z,23.83
2018-05-04T22:31:43.140Z,21.90
2018-05-04T22:34:13.200Z,19.27
2018-05-04T22:36:43.562Z,22.37
2018-05-04T22:39:15.387Z,18.97
2018-05-04T22:41:45.545Z,15.90
2018-05-04T22:44:16.573Z,15.37
2018-05-04T22:46:46.728Z,10.43
2018-05-04T22:49:17.877Z,13.80
2018-05-04T22:51:47.926Z,12.10
2018-05-04T22:54:18.275Z,12.30
2018-05-04T22:56:48.626Z,8.30
2018-05-04T22:59:18.675Z,10.50
2018-05-04T23:01:49.014Z,9.23
2018-05-04T23:04:19.043Z,8.50
2018-05-04T23:06:49.364Z,7.27
2018-05-04T23:09:19.776Z,7.20
2018-05-04T23:11:49.883Z,7.97
2018-05-04T23:14:19.959Z,11.13
2018-05-04T23:16:51.118Z,9.43
2018-05-04T23:19:21.938Z,9.53
2018-05-04T23:21:51.975Z,7.47
2018-05-04T23:24:23.813Z,7.63
2018-05-04T23:26:54.685Z,7.80
2018-05-04T23:29:24.810Z,7.20
2018-05-04T23:31:55.268Z,9.17
2018-05-04T23:34:25.371Z,7.93
2018-05-04T23:36:55.675Z,9.57
2018-05-04T23:39:26.214Z,7.27
2018-05-04T23:41:56.291Z,9.23
2018-05-04T23:44:26.640Z,9.60
2018-05-04T23:46:57.257Z,10.73
2018-05-04T23:49:28.447Z,11.57
2018-05-04T23:51:58.763Z,10.83
2018-05-04T23:54:28.819Z,14.83
2018-05-04T23:56:59.141Z,12.00
2018-05-04T23:59:29.198Z,10.17
